Time;durP1;ratioP1;P1;durP2;ratioP2;P2;SDS_P1;SDS_P2;PMS_P1;PMS_P2;Temp;Humidity;BMP_temperature;BMP_pressure;BME280_temperature;BME280_humidity;BME280_pressure;Samples;Min_cycle;Max_cycle;Signal;HPM_P1;HPM_P2
2022/10/11 00:02:13;;;;;;;10.90;4.95;;;15.60;99.90;;;;;;5089911;28;20688;-55
2022/10/11 00:04:39;;;;;;;11.77;4.70;;;15.50;99.90;;;;;;5089497;28;20448;-55
2022/10/11 00:07:05;;;;;;;12.38;4.30;;;15.50;99.90;;;;;;5090391;28;20376;-55
2022/10/11 00:09:30;;;;;;;12.55;5.20;;;15.40;99.90;;;;;;5088562;28;20505;-58
2022/10/11 00:11:56;;;;;;;11.60;4.90;;;15.30;99.90;;;;;;5089376;28;20476;-55
2022/10/11 00:14:23;;;;;;;10.30;4.67;;;15.30;99.90;;;;;;5089912;28;20401;-55
2022/10/11 00:16:48;;;;;;;13.00;5.25;;;15.30;99.90;;;;;;5088443;28;20435;-55
2022/10/11 00:19:14;;;;;;;13.83;5.30;;;15.20;99.90;;;;;;5089225;28;20386;-55
2022/10/11 00:21:40;;;;;;;13.80;5.43;;;15.00;99.90;;;;;;5088882;28;20413;-55
2022/10/11 00:24:06;;;;;;;12.80;5.40;;;14.90;99.90;;;;;;5089788;28;20851;-55
2022/10/11 00:26:32;;;;;;;13.63;5.20;;;14.90;99.90;;;;;;5088720;28;20731;-57
2022/10/11 00:28:58;;;;;;;13.95;5.10;;;14.90;99.90;;;;;;5089045;28;20386;-55
2022/10/11 00:31:24;;;;;;;11.23;5.13;;;14.90;99.90;;;;;;5089056;28;20500;-55
2022/10/11 00:33:49;;;;;;;15.65;5.70;;;14.80;99.90;;;;;;5088602;28;20751;-55
2022/10/11 00:36:16;;;;;;;14.80;6.03;;;14.80;99.90;;;;;;5089774;28;20382;-55
2022/10/11 00:38:45;;;;;;;13.23;5.73;;;14.70;99.90;;;;;;5088638;28;20374;-52
2022/10/11 00:41:11;;;;;;;15.20;5.15;;;14.70;99.90;;;;;;5086070;28;20716;-52
2022/10/11 00:43:37;;;;;;;13.73;5.47;;;14.60;99.90;;;;;;5089214;28;20847;-53
2022/10/11 00:46:06;;;;;;;13.33;5.90;;;14.50;99.90;;;;;;5088948;28;20413;-53
2022/10/11 00:48:39;;;;;;;14.50;6.13;;;14.40;99.90;;;;;;5086087;28;20378;-55
2022/10/11 00:51:29;;;;;;;14.00;6.25;;;14.30;99.90;;;;;;5090889;28;20400;-52
2022/10/11 00:53:55;;;;;;;11.68;5.70;;;14.30;99.90;;;;;;5089982;28;20894;-52
2022/10/11 00:56:29;;;;;;;14.77;7.40;;;14.40;99.90;;;;;;5092864;28;20413;-52
2022/10/11 00:58:59;;;;;;;13.30;6.72;;;14.30;99.90;;;;;;5072168;28;20385;-53
2022/10/11 01:01:25;;;;;;;17.50;7.00;;;14.40;99.90;;;;;;5092435;28;20448;-53
2022/10/11 01:03:50;;;;;;;19.27;7.30;;;14.30;99.90;;;;;;5088887;28;20772;-54
2022/10/11 01:06:16;;;;;;;15.60;7.93;;;14.30;99.90;;;;;;5092882;28;20382;-53
2022/10/11 01:08:42;;;;;;;18.73;8.95;;;14.20;99.90;;;;;;5092161;28;20388;-52
2022/10/11 01:11:13;;;;;;;18.10;8.57;;;14.10;99.90;;;;;;5092267;28;20835;-55
2022/10/11 01:14:06;;;;;;;19.98;9.32;;;14.20;99.90;;;;;;5091874;28;20381;-54
2022/10/11 01:16:46;;;;;;;17.65;8.85;;;15.00;99.90;;;;;;5089659;28;20974;-55
2022/10/11 01:19:39;;;;;;;19.52;11.00;;;14.20;99.90;;;;;;5089877;28;20370;-53
2022/10/11 01:22:32;;;;;;;20.40;9.20;;;14.20;99.90;;;;;;5091930;28;20919;-53
2022/10/11 01:25:25;;;;;;;24.20;10.50;;;14.20;99.90;;;;;;5090427;28;20435;-53
2022/10/11 01:28:09;;;;;;;19.43;9.30;;;14.20;99.90;;;;;;5088641;28;20452;-53
2022/10/11 01:30:36;;;;;;;21.92;10.05;;;14.10;99.90;;;;;;5089414;28;20385;-54
2022/10/11 01:33:24;;;;;;;19.98;10.40;;;14.10;99.90;;;;;;5091890;28;20792;-53
2022/10/11 01:36:16;;;;;;;19.75;10.13;;;14.10;99.90;;;;;;5091390;28;20731;-54
2022/10/11 01:38:56;;;;;;;18.57;9.70;;;14.10;99.90;;;;;;5090051;28;20862;-53
2022/10/11 01:41:30;;;;;;;17.80;9.20;;;14.10;99.90;;;;;;5091121;28;20402;-53
2022/10/11 01:44:00;;;;;;;24.30;10.98;;;14.20;99.90;;;;;;5089169;28;20378;-53
2022/10/11 01:46:27;;;;;;;22.48;12.00;;;14.10;99.90;;;;;;5091904;28;20386;-53
2022/10/11 01:48:56;;;;;;;23.13;11.32;;;14.00;99.90;;;;;;5088972;28;20375;-54
2022/10/11 01:51:26;;;;;;;25.35;12.90;;;14.00;99.90;;;;;;5091697;28;20743;-55
2022/10/11 01:53:57;;;;;;;27.48;13.02;;;14.10;99.90;;;;;;5088557;28;20386;-54
2022/10/11 01:56:37;;;;;;;22.90;12.10;;;14.20;99.90;;;;;;5092194;28;20370;-54
2022/10/11 01:59:19;;;;;;;29.30;13.32;;;14.20;99.90;;;;;;5090666;28;20370;-53
2022/10/11 02:02:03;;;;;;;32.95;13.55;;;14.20;99.90;;;;;;5090433;28;20416;-52
2022/10/11 02:04:40;;;;;;;27.88;13.13;;;14.20;99.90;;;;;;5090412;28;20393;-53
2022/10/11 02:07:20;;;;;;;26.77;13.10;;;15.40;99.90;;;;;;5091969;28;20465;-52
2022/10/11 02:09:57;;;;;;;29.92;14.70;;;14.30;99.90;;;;;;5091140;28;20473;-52
2022/10/11 02:12:35;;;;;;;32.33;14.73;;;14.30;99.90;;;;;;5091064;28;20404;-53
2022/10/11 02:15:05;;;;;;;29.23;13.35;;;14.30;99.90;;;;;;5072135;28;20392;-52
2022/10/11 02:17:35;;;;;;;29.15;13.55;;;14.30;99.90;;;;;;5088347;28;20382;-55
2022/10/11 02:20:07;;;;;;;32.70;15.10;;;14.30;99.90;;;;;;5073682;28;20855;-53
2022/10/11 02:22:35;;;;;;;38.05;14.52;;;14.20;99.90;;;;;;5088210;28;20439;-54
2022/10/11 02:25:07;;;;;;;26.70;13.67;;;14.30;99.90;;;;;;5091074;28;20377;-54
2022/10/11 02:27:38;;;;;;;33.17;14.50;;;14.30;99.90;;;;;;5088055;28;20486;-53
2022/10/11 02:30:06;;;;;;;26.10;14.10;;;14.30;99.90;;;;;;5091245;28;20370;-53
2022/10/11 02:32:33;;;;;;;36.05;16.20;;;14.30;99.90;;;;;;5088128;28;20402;-56
2022/10/11 02:35:01;;;;;;;27.50;15.15;;;14.30;99.90;;;;;;5091022;28;20381;-53
2022/10/11 02:37:38;;;;;;;28.02;13.43;;;14.30;99.90;;;;;;5091017;28;20382;-53
2022/10/11 02:40:40;;;;;;;30.90;15.10;;;14.40;99.90;;;;;;5090860;28;20401;-53
2022/10/11 02:43:16;;;;;;;26.42;14.25;;;14.40;99.90;;;;;;5089920;28;20889;-53
2022/10/11 02:46:02;;;;;;;26.90;13.75;;;14.50;99.90;;;;;;5090089;28;20370;-53
2022/10/11 02:48:30;;;;;;;26.75;12.68;;;14.50;99.90;;;;;;5089975;28;20874;-54
2022/10/11 02:50:57;;;;;;;28.42;13.43;;;14.60;99.90;;;;;;5090247;28;20417;-53
2022/10/11 02:53:24;;;;;;;30.88;14.45;;;14.70;99.90;;;;;;5091141;28;20414;-53
2022/10/11 02:55:52;;;;;;;33.30;14.40;;;14.60;99.90;;;;;;5090255;28;20879;-54
2022/10/11 02:58:18;;;;;;;27.75;13.38;;;14.70;99.90;;;;;;5090496;28;20717;-53
2022/10/11 03:00:43;;;;;;;31.50;13.23;;;14.80;99.90;;;;;;5089366;28;20446;-54
2022/10/11 03:03:09;;;;;;;27.60;13.97;;;14.70;99.90;;;;;;5089919;28;20432;-54
2022/10/11 03:05:41;;;;;;;29.30;13.90;;;14.80;99.90;;;;;;5089183;28;20386;-54
2022/10/11 03:08:11;;;;;;;29.15;13.52;;;14.90;99.90;;;;;;5090726;28;20421;-54
2022/10/11 03:10:37;;;;;;;26.42;13.48;;;14.90;99.90;;;;;;5089800;28;20475;-54
2022/10/11 03:13:03;;;;;;;34.85;14.95;;;15.00;99.90;;;;;;5090371;28;20374;-53
2022/10/11 03:15:29;;;;;;;33.73;14.27;;;14.90;99.90;;;;;;5089969;28;20431;-55
2022/10/11 03:17:55;;;;;;;31.90;14.65;;;14.80;99.90;;;;;;5089690;28;20374;-54
2022/10/11 03:20:20;;;;;;;36.40;15.10;;;14.90;99.90;;;;;;5090100;28;20509;-54
2022/10/11 03:22:46;;;;;;;28.88;13.55;;;14.80;99.90;;;;;;5089864;28;20385;-53
2022/10/11 03:25:12;;;;;;;33.13;14.07;;;14.80;99.90;;;;;;5090118;28;20433;-53
2022/10/11 03:27:38;;;;;;;35.72;14.57;;;14.70;99.90;;;;;;5089566;28;20370;-54
2022/10/11 03:30:04;;;;;;;30.83;14.40;;;14.80;99.90;;;;;;5090156;28;20431;-54
2022/10/11 03:32:30;;;;;;;31.03;13.63;;;14.80;99.90;;;;;;5090192;28;20487;-54
2022/10/11 03:34:56;;;;;;;37.03;15.25;;;14.90;99.90;;;;;;5089383;28;20431;-53
2022/10/11 03:37:22;;;;;;;35.95;14.45;;;14.90;99.90;;;;;;5090253;28;20370;-54
2022/10/11 03:39:47;;;;;;;32.25;15.18;;;14.90;99.90;;;;;;5071195;28;20405;-54
2022/10/11 03:42:13;;;;;;;36.80;15.00;;;14.90;99.90;;;;;;5089598;28;20389;-54
2022/10/11 03:44:40;;;;;;;32.08;14.95;;;15.00;99.90;;;;;;5089157;28;20475;-54
2022/10/11 03:47:06;;;;;;;28.38;13.77;;;15.10;99.90;;;;;;5089683;28;20743;-54
2022/10/11 03:49:32;;;;;;;34.73;15.20;;;15.10;99.90;;;;;;5086953;28;20370;-56
2022/10/11 03:51:57;;;;;;;31.15;14.98;;;15.10;99.90;;;;;;5089149;28;20735;-54
2022/10/11 03:54:23;;;;;;;34.08;16.05;;;15.00;99.90;;;;;;5090008;28;20374;-54
2022/10/11 03:56:49;;;;;;;35.23;14.40;;;15.00;99.90;;;;;;5070621;28;20381;-54
2022/10/11 03:59:14;;;;;;;36.00;15.60;;;15.00;99.90;;;;;;5089992;28;20381;-54
2022/10/11 04:01:40;;;;;;;36.13;16.00;;;14.90;99.90;;;;;;5089249;28;20394;-54
2022/10/11 04:04:05;;;;;;;34.40;15.50;;;14.90;99.90;;;;;;5090019;28;20920;-54
2022/10/11 04:06:32;;;;;;;29.92;15.23;;;15.00;99.90;;;;;;5090112;28;20370;-54
2022/10/11 04:08:58;;;;;;;31.00;14.13;;;15.10;99.90;;;;;;5089203;28;20378;-55
2022/10/11 04:11:23;;;;;;;31.58;15.05;;;15.10;99.90;;;;;;5089963;28;20366;-54
2022/10/11 04:13:49;;;;;;;32.40;14.57;;;15.00;99.90;;;;;;5089558;28;20450;-54
2022/10/11 04:16:14;;;;;;;31.23;15.32;;;15.00;99.90;;;;;;5089251;28;20703;-54
2022/10/11 04:18:40;;;;;;;28.17;14.80;;;15.00;99.90;;;;;;5088545;28;20927;-54
2022/10/11 04:21:06;;;;;;;36.93;14.77;;;15.00;99.90;;;;;;5071066;28;20398;-54
2022/10/11 04:23:32;;;;;;;29.37;15.40;;;15.00;99.90;;;;;;5089537;28;20442;-54
2022/10/11 04:25:57;;;;;;;39.22;14.55;;;15.10;99.90;;;;;;5090206;28;20460;-54
2022/10/11 04:28:23;;;;;;;28.35;14.35;;;15.20;99.90;;;;;;5088512;28;20473;-55
2022/10/11 04:30:50;;;;;;;34.42;14.63;;;15.20;99.90;;;;;;5090286;28;20755;-54
2022/10/11 04:33:16;;;;;;;27.00;13.53;;;15.10;99.90;;;;;;5093696;28;20761;-55
2022/10/11 04:35:41;;;;;;;30.15;14.32;;;15.20;99.90;;;;;;5092673;28;20858;-54
2022/10/11 04:38:07;;;;;;;29.80;14.07;;;15.10;99.90;;;;;;5093365;28;20843;-54
2022/10/11 04:40:33;;;;;;;30.70;15.00;;;15.00;99.90;;;;;;5092872;28;20414;-56
2022/10/11 04:42:59;;;;;;;34.00;14.98;;;15.10;99.90;;;;;;5092623;28;20386;-54
2022/10/11 04:45:25;;;;;;;33.92;14.15;;;15.00;99.90;;;;;;5093211;28;20382;-54
2022/10/11 04:47:51;;;;;;;27.97;14.40;;;15.00;99.90;;;;;;5092845;28;20405;-54
2022/10/11 04:50:17;;;;;;;26.60;12.95;;;14.90;99.90;;;;;;5093349;28;20727;-56
2022/10/11 04:52:42;;;;;;;34.47;14.05;;;14.80;99.90;;;;;;5093077;28;20374;-56
2022/10/11 04:55:09;;;;;;;29.88;13.57;;;14.90;99.90;;;;;;5093551;28;20464;-56
2022/10/11 04:57:34;;;;;;;32.67;13.82;;;14.90;99.90;;;;;;5092822;28;20611;-57
2022/10/11 05:00:00;;;;;;;29.40;13.50;;;15.00;99.90;;;;;;5093643;28;20876;-57
2022/10/11 05:02:26;;;;;;;26.60;12.23;;;15.00;99.90;;;;;;5077846;28;20403;-57
2022/10/11 05:04:51;;;;;;;30.17;13.13;;;15.10;99.90;;;;;;5083640;28;20471;-57
2022/10/11 05:07:17;;;;;;;25.67;12.00;;;15.10;99.90;;;;;;5093434;28;20380;-56
2022/10/11 05:09:42;;;;;;;30.47;12.33;;;15.10;99.90;;;;;;5082366;28;20841;-57
2022/10/11 05:12:08;;;;;;;28.67;12.80;;;15.10;99.90;;;;;;5073361;28;20382;-57
2022/10/11 05:14:34;;;;;;;30.87;12.43;;;15.20;99.90;;;;;;5079109;28;20924;-60
2022/10/11 05:16:59;;;;;;;26.10;11.37;;;15.30;99.90;;;;;;5089605;28;20393;-55
2022/10/11 05:19:25;;;;;;;22.25;11.00;;;15.30;99.90;;;;;;5092710;28;20734;-57
2022/10/11 05:21:50;;;;;;;24.00;11.50;;;15.40;99.90;;;;;;5091920;28;20895;-57
2022/10/11 05:24:16;;;;;;;23.63;11.60;;;15.40;99.90;;;;;;5093041;28;20366;-56
2022/10/11 05:26:42;;;;;;;24.83;11.35;;;15.40;99.90;;;;;;5073755;28;20465;-57
2022/10/11 05:29:07;;;;;;;24.60;11.30;;;15.50;99.90;;;;;;5073771;28;20727;-57
2022/10/11 05:31:33;;;;;;;24.30;11.30;;;15.50;99.90;;;;;;5092566;28;20402;-57
2022/10/11 05:33:58;;;;;;;22.90;11.10;;;15.50;99.90;;;;;;5091911;28;20370;-58
2022/10/11 05:36:24;;;;;;;22.00;11.13;;;15.50;99.90;;;;;;5074468;28;20605;-58
2022/10/11 05:38:50;;;;;;;22.55;12.20;;;15.60;99.90;;;;;;5092371;28;20478;-54
2022/10/11 05:41:16;;;;;;;23.50;11.93;;;15.50;99.90;;;;;;5092631;28;20531;-54
2022/10/11 05:43:43;;;;;;;28.38;13.25;;;15.50;99.90;;;;;;5091894;28;20409;-54
2022/10/11 05:46:09;;;;;;;23.33;12.00;;;15.40;99.90;;;;;;5092389;28;20382;-54
2022/10/11 05:48:35;;;;;;;28.20;12.93;;;15.40;99.90;;;;;;5091880;28;20370;-56
2022/10/11 05:51:02;;;;;;;22.88;11.63;;;15.40;99.90;;;;;;5092082;28;20435;-55
2022/10/11 05:53:29;;;;;;;22.05;11.80;;;15.40;99.90;;;;;;5092681;28;20370;-54
2022/10/11 05:55:55;;;;;;;23.77;11.20;;;15.50;99.90;;;;;;5091767;28;20417;-54
2022/10/11 05:58:21;;;;;;;30.30;12.23;;;15.30;99.90;;;;;;5092637;28;20383;-54
2022/10/11 06:00:47;;;;;;;30.90;12.60;;;15.20;99.90;;;;;;5091567;28;20494;-54
2022/10/11 06:03:13;;;;;;;26.10;11.55;;;15.20;99.90;;;;;;5090936;28;20382;-56
2022/10/11 06:05:38;;;;;;;21.77;11.35;;;15.20;99.90;;;;;;5084753;28;20397;-54
2022/10/11 06:08:07;;;;;;;24.93;11.87;;;15.20;99.90;;;;;;5092087;28;20394;-54
2022/10/11 06:10:34;;;;;;;26.13;11.40;;;15.20;99.90;;;;;;5091474;28;20388;-54
2022/10/11 06:13:00;;;;;;;28.88;12.32;;;15.20;99.90;;;;;;5091489;28;20432;-55
2022/10/11 06:15:25;;;;;;;24.00;10.73;;;15.30;99.90;;;;;;5091874;28;20382;-54
2022/10/11 06:17:51;;;;;;;26.02;11.40;;;15.20;99.90;;;;;;5091221;28;20370;-54
2022/10/11 06:20:17;;;;;;;23.38;11.65;;;15.20;99.90;;;;;;5091465;28;20478;-54
2022/10/11 06:22:43;;;;;;;24.40;10.88;;;15.10;99.90;;;;;;5091533;28;20416;-54
2022/10/11 06:25:08;;;;;;;26.80;12.13;;;15.00;99.90;;;;;;5091610;28;20382;-54
2022/10/11 06:27:34;;;;;;;23.65;10.85;;;15.00;99.90;;;;;;5091234;28;20878;-54
2022/10/11 06:30:00;;;;;;;22.85;12.13;;;15.10;99.90;;;;;;5091205;28;20365;-54
2022/10/11 06:32:25;;;;;;;27.23;11.80;;;15.10;99.90;;;;;;5091765;28;20434;-54
2022/10/11 06:34:51;;;;;;;27.40;12.32;;;15.20;99.90;;;;;;5090833;28;20378;-55
2022/10/11 06:37:17;;;;;;;22.53;12.00;;;15.30;99.90;;;;;;5091634;28;20400;-54
2022/10/11 06:39:43;;;;;;;29.67;11.88;;;15.30;99.90;;;;;;5090788;28;20405;-54
2022/10/11 06:42:11;;;;;;;28.77;12.02;;;15.30;99.90;;;;;;5091577;28;20374;-55
2022/10/11 06:44:38;;;;;;;25.88;11.88;;;15.30;99.90;;;;;;5091076;28;20378;-54
2022/10/11 06:47:04;;;;;;;26.10;11.52;;;15.30;99.90;;;;;;5090819;28;20402;-54
2022/10/11 06:49:30;;;;;;;25.60;12.18;;;15.40;99.90;;;;;;5090723;28;20374;-54
2022/10/11 06:51:56;;;;;;;27.73;11.63;;;15.40;99.90;;;;;;5089782;28;20405;-53
2022/10/11 06:54:21;;;;;;;27.57;11.80;;;15.40;99.90;;;;;;5091173;28;20469;-53
2022/10/11 06:56:47;;;;;;;25.38;12.45;;;15.40;99.90;;;;;;5089882;28;20469;-54
2022/10/11 06:59:13;;;;;;;22.00;11.70;;;15.50;99.90;;;;;;5091025;28;20432;-54
2022/10/11 07:01:40;;;;;;;25.92;11.82;;;15.50;99.90;;;;;;5090608;28;20418;-54
2022/10/11 07:04:06;;;;;;;26.00;11.63;;;15.60;99.90;;;;;;5090834;28;20485;-54
2022/10/11 07:06:36;;;;;;;25.50;11.80;;;15.60;99.90;;;;;;5090423;28;20751;-54
2022/10/11 07:09:02;;;;;;;24.17;11.43;;;15.50;99.90;;;;;;5090744;28;20708;-53
2022/10/11 07:11:28;;;;;;;26.52;10.95;;;15.50;99.90;;;;;;5090461;28;20906;-54
2022/10/11 07:13:55;;;;;;;21.42;11.38;;;15.50;99.90;;;;;;5090443;28;20454;-53
2022/10/11 07:16:22;;;;;;;28.08;12.55;;;15.50;99.90;;;;;;5073120;28;20374;-53
2022/10/11 07:18:53;;;;;;;19.97;10.70;;;15.50;99.90;;;;;;5090605;28;20378;-54
2022/10/11 07:21:19;;;;;;;20.40;10.10;;;15.50;99.90;;;;;;5090441;28;20413;-53
2022/10/11 07:23:45;;;;;;;24.70;11.88;;;15.50;99.90;;;;;;5090369;28;20382;-54
2022/10/11 07:26:11;;;;;;;25.40;11.93;;;15.60;99.90;;;;;;5091037;28;20374;-53
2022/10/11 07:28:38;;;;;;;22.23;11.25;;;15.70;99.90;;;;;;5090627;28;20854;-54
2022/10/11 07:31:19;;;;;;;21.92;11.35;;;15.70;99.90;;;;;;5090286;28;20831;-53
2022/10/11 07:33:45;;;;;;;27.60;11.82;;;15.60;99.90;;;;;;5090319;28;20392;-54
2022/10/11 07:36:11;;;;;;;18.85;11.43;;;15.60;99.90;;;;;;5090205;28;20865;-56
2022/10/11 07:38:42;;;;;;;25.17;11.70;;;14.20;99.90;;;;;;5089531;28;20379;-54
2022/10/11 07:41:09;;;;;;;22.30;11.30;;;15.60;99.90;;;;;;5090650;28;20439;-54
2022/10/11 07:43:36;;;;;;;22.80;10.95;;;15.70;99.90;;;;;;5090742;28;20380;-53
2022/10/11 07:46:02;;;;;;;25.47;12.33;;;16.00;99.90;;;;;;5090172;28;20732;-53
2022/10/11 07:48:33;;;;;;;27.33;12.68;;;15.70;99.90;;;;;;5090140;28;20866;-54
2022/10/11 07:51:10;;;;;;;23.50;11.85;;;15.70;99.90;;;;;;5089629;28;20431;-54
2022/10/11 07:53:40;;;;;;;23.02;11.00;;;15.60;99.90;;;;;;5089756;28;20700;-56
2022/10/11 07:56:07;;;;;;;24.95;13.10;;;15.50;99.90;;;;;;5090367;28;20855;-54
2022/10/11 07:58:33;;;;;;;21.80;10.52;;;15.40;99.90;;;;;;5090769;28;20381;-53
2022/10/11 08:00:58;;;;;;;26.63;11.83;;;15.50;99.90;;;;;;5070815;28;20425;-54
2022/10/11 08:03:24;;;;;;;22.30;12.10;;;15.70;99.90;;;;;;5090318;28;20409;-53
2022/10/11 08:05:51;;;;;;;26.90;11.95;;;15.60;99.90;;;;;;5089386;28;20408;-56
2022/10/11 08:08:17;;;;;;;25.80;12.03;;;15.70;99.90;;;;;;5089486;28;20823;-53
2022/10/11 08:10:43;;;;;;;25.50;12.90;;;15.60;59.00;;;;;;5089264;28;20734;-53
2022/10/11 08:13:09;;;;;;;25.60;13.13;;;15.60;60.00;;;;;;5089803;28;20378;-53
2022/10/11 08:15:34;;;;;;;25.17;12.67;;;15.60;83.00;;;;;;5090390;28;20374;-53
2022/10/11 08:18:00;;;;;;;24.42;11.93;;;15.60;77.50;;;;;;5089214;28;20847;-54
2022/10/11 08:20:26;;;;;;;23.00;12.20;;;15.60;99.90;;;;;;5089805;28;20404;-53
2022/10/11 08:22:51;;;;;;;27.30;12.90;;;15.50;91.00;;;;;;5089528;28;20418;-54
2022/10/11 08:25:17;;;;;;;22.60;11.10;;;15.50;91.80;;;;;;5090253;28;20401;-54
2022/10/11 08:27:42;;;;;;;24.92;11.68;;;15.50;98.80;;;;;;5089200;28;20401;-53
2022/10/11 08:30:09;;;;;;;27.13;12.73;;;15.40;92.90;;;;;;5090052;28;20858;-54
2022/10/11 08:32:34;;;;;;;24.52;11.80;;;15.30;99.90;;;;;;5089770;28;20406;-53
2022/10/11 08:35:00;;;;;;;27.53;12.30;;;15.40;99.90;;;;;;5089151;28;20566;-55
2022/10/11 08:37:25;;;;;;;26.05;12.85;;;15.50;99.90;;;;;;5090032;28;20386;-55
2022/10/11 08:39:51;;;;;;;23.40;13.20;;;15.50;99.90;;;;;;5088694;28;20485;-55
2022/10/11 08:42:32;;;;;;;24.03;11.87;;;15.60;79.10;;;;;;5089928;28;21174;-55
2022/10/11 08:45:06;;;;;;;22.55;11.30;;;15.70;95.60;;;;;;5088794;28;20449;-55
2022/10/11 08:47:39;;;;;;;24.40;11.50;;;15.70;39.90;;;;;;5089677;28;20377;-55
2022/10/11 08:50:06;;;;;;;22.15;11.10;;;15.60;78.80;;;;;;5072087;28;20813;-55
2022/10/11 08:52:47;;;;;;;25.00;12.07;;;15.60;74.30;;;;;;5088957;28;20378;-55
2022/10/11 08:55:30;;;;;;;24.85;11.73;;;15.50;99.90;;;;;;5089909;28;20457;-55
2022/10/11 08:57:55;;;;;;;25.95;11.90;;;15.50;99.90;;;;;;5089010;28;20832;-55
2022/10/11 09:00:23;;;;;;;23.40;12.60;;;15.40;99.90;;;;;;5089238;28;20405;-55
2022/10/11 09:03:06;;;;;;;23.20;12.02;;;15.40;99.90;;;;;;5088732;28;20467;-55
2022/10/11 09:05:34;;;;;;;20.27;11.00;;;15.40;99.90;;;;;;5089754;28;20397;-55
2022/10/11 09:08:26;;;;;;;24.27;12.13;;;15.50;99.90;;;;;;5088739;28;20708;-55
2022/10/11 09:11:00;;;;;;;22.95;11.00;;;15.70;94.80;;;;;;5088804;28;20390;-55
2022/10/11 09:13:41;;;;;;;25.27;11.70;;;15.90;1.00;;;;;;5092250;28;20727;-55
2022/10/11 09:16:09;;;;;;;23.50;11.10;;;16.00;1.00;;;;;;5093262;28;20443;-55
2022/10/11 09:18:47;;;;;;;18.33;10.20;;;16.00;1.00;;;;;;5092916;28;20449;-55
2022/10/11 09:21:31;;;;;;;21.50;11.70;;;15.90;1.00;;;;;;5093616;28;20497;-55
2022/10/11 09:24:22;;;;;;;25.63;10.82;;;16.00;1.00;;;;;;5091965;28;20390;-55
2022/10/11 09:26:54;;;;;;;26.67;10.80;;;16.20;1.00;;;;;;5092404;28;20385;-55
2022/10/11 09:29:39;;;;;;;23.08;11.13;;;16.20;1.00;;;;;;5092993;28;20907;-55
2022/10/11 09:32:13;;;;;;;22.13;10.63;;;16.30;1.00;;;;;;5092250;28;20417;-55
2022/10/11 09:34:39;;;;;;;22.45;10.93;;;16.40;1.00;;;;;;5092281;28;20870;-56
2022/10/11 09:37:21;;;;;;;24.13;11.40;;;16.50;1.00;;;;;;5092528;28;20421;-55
2022/10/11 09:39:57;;;;;;;23.45;11.68;;;16.50;1.00;;;;;;5092018;28;20378;-55
2022/10/11 09:42:23;;;;;;;22.80;10.68;;;16.40;1.00;;;;;;5092651;28;20491;-55
2022/10/11 09:44:50;;;;;;;18.90;10.60;;;16.30;1.00;;;;;;5092033;28;20942;-55
2022/10/11 09:47:18;;;;;;;20.63;10.23;;;16.30;1.00;;;;;;5092074;28;20774;-55
2022/10/11 09:50:05;;;;;;;19.40;10.23;;;16.50;1.00;;;;;;5091894;28;20711;-55
2022/10/11 09:52:31;;;;;;;19.77;9.90;;;16.60;1.00;;;;;;5092790;28;20859;-55
2022/10/11 09:54:59;;;;;;;20.30;9.77;;;16.60;1.00;;;;;;5091491;28;20410;-55
2022/10/11 09:57:31;;;;;;;19.63;9.70;;;16.90;1.00;;;;;;5092420;28;20374;-52
2022/10/11 10:00:16;;;;;;;17.57;9.30;;;17.20;99.90;;;;;;5091675;28;20430;-53
2022/10/11 10:02:48;;;;;;;18.27;9.52;;;17.30;99.90;;;;;;5091469;28;20405;-53
2022/10/11 10:05:29;;;;;;;19.50;9.07;;;17.50;99.90;;;;;;5073646;28;20394;-53
2022/10/11 10:08:10;;;;;;;21.05;9.63;;;17.20;1.00;;;;;;5091068;28;20374;-54
2022/10/11 10:10:55;;;;;;;22.05;9.35;;;17.00;99.90;;;;;;5092236;28;20378;-53
2022/10/11 10:13:41;;;;;;;21.27;9.15;;;17.10;99.90;;;;;;5092053;28;20389;-53
2022/10/11 10:16:17;;;;;;;20.60;9.70;;;17.30;99.90;;;;;;5091889;28;20414;-53
2022/10/11 10:18:55;;;;;;;19.80;9.10;;;17.20;99.90;;;;;;5091261;28;20382;-55
2022/10/11 10:21:46;;;;;;;21.83;10.02;;;17.40;1.00;;;;;;5091955;28;20394;-54
2022/10/11 10:24:32;;;;;;;16.85;9.00;;;17.40;1.00;;;;;;5078606;28;20473;-53
2022/10/11 10:27:13;;;;;;;17.80;8.70;;;17.50;1.00;;;;;;5091047;28;20374;-53
2022/10/11 10:29:39;;;;;;;25.00;9.23;;;17.50;99.90;;;;;;5091927;28;20378;-54
2022/10/11 10:32:21;;;;;;;18.50;8.60;;;17.50;99.90;;;;;;5090912;28;20848;-54
2022/10/11 10:35:16;;;;;;;16.93;8.30;;;17.50;99.90;;;;;;5091196;28;20831;-54
2022/10/11 10:37:47;;;;;;;16.00;8.10;;;17.50;1.00;;;;;;5090548;28;20790;-53
2022/10/11 10:40:19;;;;;;;19.38;8.32;;;17.20;99.90;;;;;;5091248;28;20402;-54
2022/10/11 10:42:45;;;;;;;15.73;8.68;;;17.10;99.90;;;;;;5090233;28;20823;-54
2022/10/11 10:45:15;;;;;;;18.88;8.82;;;17.10;1.00;;;;;;5091484;28;20370;-54
2022/10/11 10:48:09;;;;;;;18.17;8.30;;;17.10;99.90;;;;;;5091141;28;20370;-55
2022/10/11 10:50:43;;;;;;;16.70;9.00;;;17.30;99.90;;;;;;5091105;28;20378;-54
2022/10/11 10:53:09;;;;;;;21.40;9.32;;;17.30;99.90;;;;;;5090587;28;20402;-54
2022/10/11 10:55:46;;;;;;;16.53;9.80;;;17.40;99.90;;;;;;5090971;28;20447;-54
2022/10/11 10:58:17;;;;;;;21.45;9.18;;;17.70;1.00;;;;;;5091237;28;20406;-54
2022/10/11 11:00:49;;;;;;;16.88;8.93;;;17.90;99.90;;;;;;5090757;28;20571;-53
2022/10/11 11:03:42;;;;;;;18.42;8.85;;;17.90;1.00;;;;;;5091409;28;20514;-54
2022/10/11 11:06:18;;;;;;;20.23;9.48;;;18.00;1.00;;;;;;5090735;28;20373;-54
2022/10/11 11:08:50;;;;;;;17.55;8.60;;;18.30;1.00;;;;;;5089934;28;20362;-56
2022/10/11 11:11:21;;;;;;;18.40;9.57;;;18.40;1.00;;;;;;5090623;28;20382;-54
2022/10/11 11:14:17;;;;;;;24.27;11.80;;;18.30;99.90;;;;;;5089920;28;20882;-54
2022/10/11 11:16:43;;;;;;;19.80;9.93;;;18.00;99.90;;;;;;5088751;28;20755;-56
2022/10/11 11:19:43;;;;;;;20.85;9.30;;;18.00;1.00;;;;;;5090946;28;20378;-55
2022/10/11 11:22:21;;;;;;;18.83;9.30;;;17.90;1.00;;;;;;5090789;28;20418;-54
2022/10/11 11:25:17;;;;;;;18.88;9.18;;;17.80;99.90;;;;;;5090108;28;20448;-54
2022/10/11 11:28:19;;;;;;;17.88;8.73;;;17.50;99.90;;;;;;5090347;28;20723;-53
2022/10/11 11:31:10;;;;;;;17.58;8.70;;;17.30;1.00;;;;;;5089291;28;20405;-54
2022/10/11 11:33:48;;;;;;;17.50;8.23;;;17.30;1.00;;;;;;5090450;28;20863;-54
2022/10/11 11:36:32;;;;;;;18.13;8.55;;;17.40;1.00;;;;;;5090363;28;20968;-54
2022/10/11 11:39:01;;;;;;;16.40;8.82;;;17.50;1.00;;;;;;5071661;28;20367;-54
2022/10/11 11:41:55;;;;;;;17.90;9.10;;;17.50;1.00;;;;;;5089777;28;20429;-54
2022/10/11 11:44:31;;;;;;;19.33;9.80;;;17.60;1.00;;;;;;5088971;28;20393;-54
2022/10/11 11:47:00;;;;;;;21.33;9.30;;;17.70;1.00;;;;;;5089339;28;20382;-54
2022/10/11 11:49:34;;;;;;;17.52;9.55;;;17.70;1.00;;;;;;5089958;28;20766;-54
2022/10/11 11:52:01;;;;;;;17.20;9.13;;;17.70;1.00;;;;;;5089307;28;20382;-54
2022/10/11 11:54:49;;;;;;;17.67;9.32;;;17.60;1.00;;;;;;5089965;28;20378;-54
2022/10/11 11:57:52;;;;;;;18.95;8.93;;;17.40;99.90;;;;;;5090009;28;20847;-54
2022/10/11 12:00:25;;;;;;;20.58;9.38;;;17.30;1.00;;;;;;5090005;28;20401;-54
2022/10/11 12:02:59;;;;;;;19.55;9.10;;;17.00;1.00;;;;;;5089263;28;20390;-54
2022/10/11 12:05:29;;;;;;;18.92;9.73;;;16.90;80.80;;;;;;5089996;28;20373;-54
2022/10/11 12:08:07;;;;;;;21.17;10.02;;;17.00;99.90;;;;;;5089618;28;20785;-54
2022/10/11 12:10:53;;;;;;;17.00;9.20;;;17.30;42.00;;;;;;5089816;28;20388;-54
2022/10/11 12:13:36;;;;;;;19.00;9.53;;;17.50;45.20;;;;;;5089824;28;20390;-54
2022/10/11 12:16:16;;;;;;;15.57;9.20;;;17.60;45.70;;;;;;5089280;28;21007;-55
2022/10/11 12:18:52;;;;;;;16.52;8.63;;;17.70;1.00;;;;;;5089719;28;20377;-56
2022/10/11 12:21:38;;;;;;;15.93;8.80;;;17.60;1.00;;;;;;5090008;28;20942;-54
2022/10/11 12:24:14;;;;;;;15.45;8.35;;;17.60;1.00;;;;;;5089540;28;20693;-54
2022/10/11 12:26:54;;;;;;;18.33;9.10;;;17.70;29.20;;;;;;5089851;28;20398;-54
2022/10/11 12:29:23;;;;;;;18.55;9.50;;;17.80;1.00;;;;;;5089661;28;20370;-54
2022/10/11 12:31:58;;;;;;;48.00;32.55;;;17.80;99.90;;;;;;5089164;28;20410;-54
2022/10/11 12:34:33;;;;;;;27.98;12.07;;;17.80;99.90;;;;;;5088366;28;20431;-54
2022/10/11 12:36:59;;;;;;;55.40;41.72;;;17.80;1.00;;;;;;5089053;28;20395;-54
2022/10/11 12:39:25;;;;;;;62.33;42.83;;;17.90;1.00;;;;;;5089414;28;20392;-54
2022/10/11 12:42:04;;;;;;;28.10;21.27;;;17.90;1.00;;;;;;5088731;28;20485;-54
2022/10/11 12:44:29;;;;;;;22.67;10.30;;;17.70;1.00;;;;;;5089211;28;20378;-54
2022/10/11 12:46:56;;;;;;;16.00;9.50;;;17.70;1.00;;;;;;5090544;28;20427;-54
2022/10/11 12:49:31;;;;;;;16.50;8.00;;;17.80;1.00;;;;;;5093285;28;20425;-54
2022/10/11 12:52:04;;;;;;;17.02;9.35;;;17.80;99.90;;;;;;5092671;28;20400;-54